Antioch, Mississippi
Current Conditions -  °F | °C
As of 8:15 AM on Monday 24 Nov 2014 (Local Time) from KPIB Reporting Station
Scattered Clouds Scattered Clouds  
Wind Chill: 18°   Ceiling: Unl
Heat Index: 18°   Visibility: 10mi
Dew Point: 14°   Wind: 7mph
Humidity: 77%   Direction: 300°WNW
Pressure: 29.86"   Gusts: NA
Location:  31.6875°N, 89.1116°W
Report Text: KPIB 241415Z AUTO 30006KT 250V310 10SM SCT013 SCT018 18/14 A2986 RMK AO1
Loading
Personal Weather Stations






























Interactive Weather Map New forecast layout! Learn more

10-Day Weather Forecast

Advertisements
Track Severe Weather on mobile